sensor_id;sensor_type;location;lat;lon;timestamp;pressure;altitude;pressure_sealevel;temperature;humidity
28312;BME280;15572;48.810;9.148;2024-01-15T00:01:21;97093.81;;;-2.26;100.00
28312;BME280;15572;48.810;9.148;2024-01-15T00:06:18;97086.72;;;-2.35;100.00
28312;BME280;15572;48.810;9.148;2024-01-15T00:11:15;97076.28;;;-2.46;100.00
28312;BME280;15572;48.810;9.148;2024-01-15T00:16:13;97065.84;;;-2.58;100.00
28312;BME280;15572;48.810;9.148;2024-01-15T00:21:09;97073.50;;;-2.64;100.00
28312;BME280;15572;48.810;9.148;2024-01-15T00:26:06;97069.75;;;-2.71;100.00
28312;BME280;15572;48.810;9.148;2024-01-15T00:31:02;97060.84;;;-2.80;100.00
28312;BME280;15572;48.810;9.148;2024-01-15T00:36:00;97059.03;;;-2.79;100.00
28312;BME280;15572;48.810;9.148;2024-01-15T00:40:57;97060.28;;;-2.74;100.00
28312;BME280;15572;48.810;9.148;2024-01-15T00:45:53;97061.53;;;-2.68;100.00
28312;BME280;15572;48.810;9.148;2024-01-15T00:50:49;97069.03;;;-2.64;100.00
28312;BME280;15572;48.810;9.148;2024-01-15T00:55:48;97061.38;;;-2.57;100.00
28312;BME280;15572;48.810;9.148;2024-01-15T01:00:44;97061.63;;;-2.50;100.00
28312;BME280;15572;48.810;9.148;2024-01-15T01:05:41;97058.25;;;-2.43;100.00
28312;BME280;15572;48.810;9.148;2024-01-15T01:10:37;97057.66;;;-2.27;100.00
28312;BME280;15572;48.810;9.148;2024-01-15T01:15:35;97067.97;;;-2.24;100.00
28312;BME280;15572;48.810;9.148;2024-01-15T01:20:31;97065.75;;;-2.19;100.00
28312;BME280;15572;48.810;9.148;2024-01-15T01:25:28;97051.19;;;-2.15;100.00
28312;BME280;15572;48.810;9.148;2024-01-15T01:30:24;97052.28;;;-2.08;100.00
28312;BME280;15572;48.810;9.148;2024-01-15T01:35:22;97061.31;;;-2.01;100.00
28312;BME280;15572;48.810;9.148;2024-01-15T01:40:19;97060.44;;;-1.92;100.00
28312;BME280;15572;48.810;9.148;2024-01-15T01:45:15;97063.78;;;-1.90;100.00
28312;BME280;15572;48.810;9.148;2024-01-15T01:50:12;97066.25;;;-1.79;100.00
28312;BME280;15572;48.810;9.148;2024-01-15T01:55:11;97060.66;;;-1.76;100.00
28312;BME280;15572;48.810;9.148;2024-01-15T02:00:09;97064.00;;;-1.74;100.00
28312;BME280;15572;48.810;9.148;2024-01-15T02:05:07;97049.44;;;-1.70;100.00
28312;BME280;15572;48.810;9.148;2024-01-15T02:10:05;97059.66;;;-1.75;100.00
28312;BME280;15572;48.810;9.148;2024-01-15T02:15:04;97061.94;;;-1.80;100.00
28312;BME280;15572;48.810;9.148;2024-01-15T02:20:00;97046.59;;;-1.86;100.00
28312;BME280;15572;48.810;9.148;2024-01-15T02:24:58;97043.09;;;-1.86;100.00
28312;BME280;15572;48.810;9.148;2024-01-15T02:29:55;97046.00;;;-1.80;100.00
28312;BME280;15572;48.810;9.148;2024-01-15T02:34:52;97042.44;;;-1.88;100.00
28312;BME280;15572;48.810;9.148;2024-01-15T02:39:48;97035.91;;;-1.94;100.00
28312;BME280;15572;48.810;9.148;2024-01-15T02:44:46;97033.69;;;-1.98;100.00
28312;BME280;15572;48.810;9.148;2024-01-15T02:49:43;97026.72;;;-1.99;100.00
28312;BME280;15572;48.810;9.148;2024-01-15T02:54:40;97033.13;;;-2.02;100.00
28312;BME280;15572;48.810;9.148;2024-01-15T02:59:36;97036.94;;;-2.04;100.00
28312;BME280;15572;48.810;9.148;2024-01-15T03:04:34;97030.38;;;-2.10;100.00
28312;BME280;15572;48.810;9.148;2024-01-15T03:09:30;97013.38;;;-2.17;100.00
28312;BME280;15572;48.810;9.148;2024-01-15T03:14:27;97019.81;;;-2.20;100.00
28312;BME280;15572;48.810;9.148;2024-01-15T03:19:23;97023.44;;;-2.21;100.00
28312;BME280;15572;48.810;9.148;2024-01-15T03:24:21;97023.16;;;-2.18;100.00
28312;BME280;15572;48.810;9.148;2024-01-15T03:29:17;97006.38;;;-2.08;100.00
28312;BME280;15572;48.810;9.148;2024-01-15T03:34:13;97012.06;;;-2.03;100.00
28312;BME280;15572;48.810;9.148;2024-01-15T03:39:10;97004.94;;;-2.03;100.00
28312;BME280;15572;48.810;9.148;2024-01-15T03:44:08;97005.88;;;-1.94;100.00
28312;BME280;15572;48.810;9.148;2024-01-15T03:49:04;97007.56;;;-1.93;100.00
28312;BME280;15572;48.810;9.148;2024-01-15T03:54:01;96998.31;;;-1.89;100.00
28312;BME280;15572;48.810;9.148;2024-01-15T03:58:57;96994.16;;;-1.74;100.00
28312;BME280;15572;48.810;9.148;2024-01-15T04:03:55;96985.84;;;-1.61;100.00
28312;BME280;15572;48.810;9.148;2024-01-15T04:08:51;96981.09;;;-1.40;100.00
28312;BME280;15572;48.810;9.148;2024-01-15T04:13:48;96987.44;;;-1.33;100.00
28312;BME280;15572;48.810;9.148;2024-01-15T04:18:44;96968.75;;;-1.06;100.00
28312;BME280;15572;48.810;9.148;2024-01-15T04:23:42;96966.00;;;-0.96;100.00
28312;BME280;15572;48.810;9.148;2024-01-15T04:28:38;96954.75;;;-0.90;99.78
28312;BME280;15572;48.810;9.148;2024-01-15T04:33:35;96957.13;;;-0.87;99.63
28312;BME280;15572;48.810;9.148;2024-01-15T04:38:32;96956.81;;;-0.84;99.22
28312;BME280;15572;48.810;9.148;2024-01-15T04:43:29;96958.00;;;-0.78;97.92
28312;BME280;15572;48.810;9.148;2024-01-15T04:48:26;96960.41;;;-0.67;97.00
28312;BME280;15572;48.810;9.148;2024-01-15T04:53:22;96953.97;;;-0.65;96.85
28312;BME280;15572;48.810;9.148;2024-01-15T04:58:19;96951.66;;;-0.60;96.34
28312;BME280;15572;48.810;9.148;2024-01-15T05:03:16;96943.84;;;-0.61;96.74
28312;BME280;15572;48.810;9.148;2024-01-15T05:08:13;96940.19;;;-0.60;96.17
28312;BME280;15572;48.810;9.148;2024-01-15T05:13:09;96944.19;;;-0.56;96.52
28312;BME280;15572;48.810;9.148;2024-01-15T05:18:06;96938.56;;;-0.53;96.46
28312;BME280;15572;48.810;9.148;2024-01-15T05:23:03;96932.25;;;-0.52;95.80
28312;BME280;15572;48.810;9.148;2024-01-15T05:28:00;96932.59;;;-0.55;96.71
28312;BME280;15572;48.810;9.148;2024-01-15T05:32:56;96927.56;;;-0.58;97.88
28312;BME280;15572;48.810;9.148;2024-01-15T05:37:55;96916.97;;;-0.50;96.40
28312;BME280;15572;48.810;9.148;2024-01-15T05:42:53;96912.50;;;-0.50;96.36
28312;BME280;15572;48.810;9.148;2024-01-15T05:47:49;96917.13;;;-0.52;96.77
28312;BME280;15572;48.810;9.148;2024-01-15T05:52:45;96931.25;;;-0.51;96.71
28312;BME280;15572;48.810;9.148;2024-01-15T05:57:42;96948.22;;;-0.52;96.47
28312;BME280;15572;48.810;9.148;2024-01-15T06:02:40;96948.22;;;-0.52;96.79
28312;BME280;15572;48.810;9.148;2024-01-15T06:07:36;96933.72;;;-0.58;97.16
28312;BME280;15572;48.810;9.148;2024-01-15T06:12:32;96935.91;;;-0.53;96.58
28312;BME280;15572;48.810;9.148;2024-01-15T06:17:29;96933.09;;;-0.52;96.24
28312;BME280;15572;48.810;9.148;2024-01-15T06:22:27;96932.09;;;-0.51;96.75
28312;BME280;15572;48.810;9.148;2024-01-15T06:27:24;96929.44;;;-0.51;96.37
28312;BME280;15572;48.810;9.148;2024-01-15T06:32:20;96915.66;;;-0.54;96.86
28312;BME280;15572;48.810;9.148;2024-01-15T06:37:17;96912.63;;;-0.59;97.77
28312;BME280;15572;48.810;9.148;2024-01-15T06:42:16;96899.00;;;-0.56;98.25
28312;BME280;15572;48.810;9.148;2024-01-15T06:47:13;96897.19;;;-0.56;97.80
28312;BME280;15572;48.810;9.148;2024-01-15T06:52:09;96891.34;;;-0.59;98.03
28312;BME280;15572;48.810;9.148;2024-01-15T06:57:07;96893.22;;;-0.52;96.47
28312;BME280;15572;48.810;9.148;2024-01-15T07:02:05;96900.34;;;-0.52;96.19
28312;BME280;15572;48.810;9.148;2024-01-15T07:07:01;96902.16;;;-0.53;96.19
28312;BME280;15572;48.810;9.148;2024-01-15T07:11:58;96903.69;;;-0.50;95.28
28312;BME280;15572;48.810;9.148;2024-01-15T07:16:54;96902.38;;;-0.46;94.65
28312;BME280;15572;48.810;9.148;2024-01-15T07:21:52;96911.88;;;-0.44;94.30
28312;BME280;15572;48.810;9.148;2024-01-15T07:26:48;96910.34;;;-0.46;95.26
28312;BME280;15572;48.810;9.148;2024-01-15T07:31:48;96912.84;;;-0.45;94.90
28312;BME280;15572;48.810;9.148;2024-01-15T07:36:44;96900.41;;;-0.44;94.59
28312;BME280;15572;48.810;9.148;2024-01-15T07:41:42;96925.81;;;-0.42;93.38
28312;BME280;15572;48.810;9.148;2024-01-15T07:46:39;96914.06;;;-0.39;92.94
28312;BME280;15572;48.810;9.148;2024-01-15T07:51:36;96918.19;;;-0.36;93.12
28312;BME280;15572;48.810;9.148;2024-01-15T07:56:33;96919.03;;;-0.36;93.65
28312;BME280;15572;48.810;9.148;2024-01-15T08:01:30;96908.25;;;-0.34;92.90
28312;BME280;15572;48.810;9.148;2024-01-15T08:06:27;96915.25;;;-0.33;93.15
28312;BME280;15572;48.810;9.148;2024-01-15T08:11:23;96922.88;;;-0.30;93.13
28312;BME280;15572;48.810;9.148;2024-01-15T08:16:20;96922.06;;;-0.31;93.09
28312;BME280;15572;48.810;9.148;2024-01-15T08:21:17;96918.25;;;-0.28;93.22
28312;BME280;15572;48.810;9.148;2024-01-15T08:26:14;96920.75;;;-0.27;92.11
28312;BME280;15572;48.810;9.148;2024-01-15T08:31:10;96925.41;;;-0.21;90.91
28312;BME280;15572;48.810;9.148;2024-01-15T08:36:07;96923.44;;;-0.19;89.97
28312;BME280;15572;48.810;9.148;2024-01-15T08:41:05;96923.63;;;-0.12;88.56
28312;BME280;15572;48.810;9.148;2024-01-15T08:46:03;96914.53;;;-0.02;87.28
28312;BME280;15572;48.810;9.148;2024-01-15T08:50:59;96915.72;;;0.04;84.87
28312;BME280;15572;48.810;9.148;2024-01-15T08:55:56;96919.22;;;0.13;84.10
28312;BME280;15572;48.810;9.148;2024-01-15T09:00:54;96930.22;;;0.18;82.90
28312;BME280;15572;48.810;9.148;2024-01-15T09:05:50;96933.41;;;0.29;82.18
28312;BME280;15572;48.810;9.148;2024-01-15T09:10:46;96925.25;;;0.31;80.37
28312;BME280;15572;48.810;9.148;2024-01-15T09:15:43;96919.25;;;0.29;80.67
28312;BME280;15572;48.810;9.148;2024-01-15T09:20:41;96910.28;;;0.30;81.97
28312;BME280;15572;48.810;9.148;2024-01-15T09:25:37;96902.28;;;0.38;82.78
28312;BME280;15572;48.810;9.148;2024-01-15T09:30:33;96888.53;;;0.43;80.79
28312;BME280;15572;48.810;9.148;2024-01-15T09:35:30;96892.50;;;0.55;80.62
28312;BME280;15572;48.810;9.148;2024-01-15T09:40:31;96904.66;;;0.57;79.72
28312;BME280;15572;48.810;9.148;2024-01-15T09:45:28;96905.16;;;0.61;78.60
28312;BME280;15572;48.810;9.148;2024-01-15T09:50:25;96907.66;;;0.62;79.04
28312;BME280;15572;48.810;9.148;2024-01-15T09:55:22;96896.50;;;0.67;78.80
28312;BME280;15572;48.810;9.148;2024-01-15T10:00:20;96894.69;;;0.67;78.68
28312;BME280;15572;48.810;9.148;2024-01-15T10:05:17;96884.34;;;0.72;77.63
28312;BME280;15572;48.810;9.148;2024-01-15T10:10:13;96872.69;;;0.81;78.48
28312;BME280;15572;48.810;9.148;2024-01-15T10:15:10;96874.03;;;0.77;77.93
28312;BME280;15572;48.810;9.148;2024-01-15T10:20:10;96873.69;;;0.89;78.01
28312;BME280;15572;48.810;9.148;2024-01-15T10:25:10;96870.03;;;0.90;77.66
28312;BME280;15572;48.810;9.148;2024-01-15T10:30:07;96858.69;;;0.88;76.50
28312;BME280;15572;48.810;9.148;2024-01-15T10:35:04;96846.88;;;0.90;77.07
28312;BME280;15572;48.810;9.148;2024-01-15T10:40:06;96829.88;;;0.99;76.84
28312;BME280;15572;48.810;9.148;2024-01-15T10:45:03;96823.03;;;1.05;76.70
28312;BME280;15572;48.810;9.148;2024-01-15T10:50:01;96816.34;;;1.17;76.87
28312;BME280;15572;48.810;9.148;2024-01-15T10:54:58;96819.19;;;1.15;77.61
28312;BME280;15572;48.810;9.148;2024-01-15T10:59:56;96819.66;;;1.19;77.80
28312;BME280;15572;48.810;9.148;2024-01-15T11:04:53;96812.59;;;1.34;78.96
28312;BME280;15572;48.810;9.148;2024-01-15T11:09:50;96816.31;;;1.25;80.48
28312;BME280;15572;48.810;9.148;2024-01-15T11:14:47;96825.03;;;1.03;88.36
28312;BME280;15572;48.810;9.148;2024-01-15T11:19:46;96816.94;;;0.80;93.51
28312;BME280;15572;48.810;9.148;2024-01-15T11:24:43;96804.47;;;0.56;100.00
28312;BME280;15572;48.810;9.148;2024-01-15T11:29:39;96799.16;;;0.48;100.00
28312;BME280;15572;48.810;9.148;2024-01-15T11:34:59;96791.50;;;0.53;100.00
28312;BME280;15572;48.810;9.148;2024-01-15T11:40:01;96778.66;;;0.49;100.00
28312;BME280;15572;48.810;9.148;2024-01-15T11:44:59;96786.16;;;0.45;100.00
28312;BME280;15572;48.810;9.148;2024-01-15T11:50:01;96787.50;;;0.41;100.00
28312;BME280;15572;48.810;9.148;2024-01-15T11:55:11;96795.47;;;0.41;100.00
28312;BME280;15572;48.810;9.148;2024-01-15T12:00:09;96797.28;;;0.32;100.00
28312;BME280;15572;48.810;9.148;2024-01-15T12:05:08;96789.47;;;0.23;100.00
28312;BME280;15572;48.810;9.148;2024-01-15T12:10:08;96791.31;;;0.22;100.00
28312;BME280;15572;48.810;9.148;2024-01-15T12:15:05;96803.13;;;0.36;100.00
28312;BME280;15572;48.810;9.148;2024-01-15T12:20:02;96790.97;;;0.33;100.00
28312;BME280;15572;48.810;9.148;2024-01-15T12:25:00;96800.31;;;0.29;100.00
28312;BME280;15572;48.810;9.148;2024-01-15T12:29:58;96808.28;;;0.21;100.00
28312;BME280;15572;48.810;9.148;2024-01-15T12:34:54;96794.47;;;0.18;100.00
28312;BME280;15572;48.810;9.148;2024-01-15T12:39:52;96801.81;;;0.16;100.00
28312;BME280;15572;48.810;9.148;2024-01-15T12:44:51;96798.97;;;0.17;100.00
28312;BME280;15572;48.810;9.148;2024-01-15T12:49:47;96805.63;;;0.05;100.00
28312;BME280;15572;48.810;9.148;2024-01-15T12:54:49;96805.09;;;-0.07;100.00
28312;BME280;15572;48.810;9.148;2024-01-15T12:59:46;96820.38;;;-0.09;100.00
28312;BME280;15572;48.810;9.148;2024-01-15T13:04:43;96819.22;;;0.02;100.00
28312;BME280;15572;48.810;9.148;2024-01-15T13:09:40;96822.22;;;0.07;100.00
28312;BME280;15572;48.810;9.148;2024-01-15T13:14:36;96840.03;;;0.07;100.00
28312;BME280;15572;48.810;9.148;2024-01-15T13:19:33;96850.03;;;0.05;100.00
28312;BME280;15572;48.810;9.148;2024-01-15T13:24:30;96849.19;;;0.04;100.00
28312;BME280;15572;48.810;9.148;2024-01-15T13:29:27;96843.69;;;0.06;100.00
28312;BME280;15572;48.810;9.148;2024-01-15T13:34:23;96849.19;;;0.12;100.00
28312;BME280;15572;48.810;9.148;2024-01-15T13:39:20;96852.19;;;0.09;100.00
28312;BME280;15572;48.810;9.148;2024-01-15T13:44:18;96863.97;;;0.07;100.00
28312;BME280;15572;48.810;9.148;2024-01-15T13:49:14;96869.97;;;0.09;100.00
28312;BME280;15572;48.810;9.148;2024-01-15T13:54:11;96880.28;;;0.04;100.00
28312;BME280;15572;48.810;9.148;2024-01-15T13:59:07;96876.09;;;0.01;100.00
28312;BME280;15572;48.810;9.148;2024-01-15T14:04:05;96880.13;;;0.05;100.00
28312;BME280;15572;48.810;9.148;2024-01-15T14:09:02;96888.91;;;0.06;100.00
28312;BME280;15572;48.810;9.148;2024-01-15T14:13:59;96884.97;;;0.10;100.00
28312;BME280;15572;48.810;9.148;2024-01-15T14:18:56;96893.28;;;0.15;100.00
28312;BME280;15572;48.810;9.148;2024-01-15T14:23:53;96917.59;;;0.20;100.00
28312;BME280;15572;48.810;9.148;2024-01-15T14:28:50;96922.91;;;0.20;100.00
28312;BME280;15572;48.810;9.148;2024-01-15T14:33:47;96943.91;;;0.31;100.00
28312;BME280;15572;48.810;9.148;2024-01-15T14:38:43;96939.38;;;0.23;100.00
28312;BME280;15572;48.810;9.148;2024-01-15T14:43:41;96966.75;;;-0.01;100.00
28312;BME280;15572;48.810;9.148;2024-01-15T14:48:38;96968.47;;;-0.25;100.00
28312;BME280;15572;48.810;9.148;2024-01-15T14:53:35;96993.00;;;-0.39;100.00
28312;BME280;15572;48.810;9.148;2024-01-15T14:58:31;96990.97;;;-0.46;100.00
28312;BME280;15572;48.810;9.148;2024-01-15T15:03:29;96990.75;;;-0.52;100.00
28312;BME280;15572;48.810;9.148;2024-01-15T15:08:26;96991.06;;;-0.55;100.00
28312;BME280;15572;48.810;9.148;2024-01-15T15:13:22;97002.69;;;-0.56;100.00
28312;BME280;15572;48.810;9.148;2024-01-15T15:18:21;97017.56;;;-0.46;100.00
28312;BME280;15572;48.810;9.148;2024-01-15T15:23:19;97014.75;;;-0.44;100.00
28312;BME280;15572;48.810;9.148;2024-01-15T15:28:15;97029.84;;;-0.45;100.00
28312;BME280;15572;48.810;9.148;2024-01-15T15:33:11;97035.22;;;-0.36;100.00
28312;BME280;15572;48.810;9.148;2024-01-15T15:38:08;97036.97;;;-0.27;100.00
28312;BME280;15572;48.810;9.148;2024-01-15T15:43:06;97054.06;;;-0.30;100.00
28312;BME280;15572;48.810;9.148;2024-01-15T15:48:02;97058.38;;;-0.29;100.00
28312;BME280;15572;48.810;9.148;2024-01-15T15:52:59;97046.59;;;-0.26;100.00
28312;BME280;15572;48.810;9.148;2024-01-15T15:57:56;97056.09;;;-0.24;100.00
28312;BME280;15572;48.810;9.148;2024-01-15T16:02:55;97086.97;;;-0.31;100.00
28312;BME280;15572;48.810;9.148;2024-01-15T16:07:51;97094.28;;;-0.33;100.00
28312;BME280;15572;48.810;9.148;2024-01-15T16:12:47;97082.56;;;-0.40;100.00
28312;BME280;15572;48.810;9.148;2024-01-15T16:17:44;97091.63;;;-0.51;100.00
28312;BME280;15572;48.810;9.148;2024-01-15T16:22:42;97091.31;;;-0.48;100.00
28312;BME280;15572;48.810;9.148;2024-01-15T16:27:38;97093.97;;;-0.48;100.00
28312;BME280;15572;48.810;9.148;2024-01-15T16:32:36;97094.28;;;-0.51;100.00
28312;BME280;15572;48.810;9.148;2024-01-15T16:37:32;97102.28;;;-0.51;100.00
28312;BME280;15572;48.810;9.148;2024-01-15T16:42:30;97121.72;;;-0.50;100.00
28312;BME280;15572;48.810;9.148;2024-01-15T16:47:26;97122.56;;;-0.50;100.00
28312;BME280;15572;48.810;9.148;2024-01-15T16:52:23;97130.53;;;-0.50;100.00
28312;BME280;15572;48.810;9.148;2024-01-15T16:57:19;97144.66;;;-0.49;100.00
28312;BME280;15572;48.810;9.148;2024-01-15T17:02:17;97146.31;;;-0.48;100.00
28312;BME280;15572;48.810;9.148;2024-01-15T17:07:14;97151.13;;;-0.52;100.00
28312;BME280;15572;48.810;9.148;2024-01-15T17:12:10;97154.22;;;-0.56;100.00
28312;BME280;15572;48.810;9.148;2024-01-15T17:17:06;97160.16;;;-0.62;100.00
28312;BME280;15572;48.810;9.148;2024-01-15T17:22:04;97176.63;;;-0.59;100.00
28312;BME280;15572;48.810;9.148;2024-01-15T17:27:01;97166.84;;;-0.58;100.00
28312;BME280;15572;48.810;9.148;2024-01-15T17:31:57;97183.78;;;-0.59;100.00
28312;BME280;15572;48.810;9.148;2024-01-15T17:36:53;97186.47;;;-0.59;100.00
28312;BME280;15572;48.810;9.148;2024-01-15T17:41:51;97197.91;;;-0.59;100.00
28312;BME280;15572;48.810;9.148;2024-01-15T17:46:48;97208.53;;;-0.59;100.00
28312;BME280;15572;48.810;9.148;2024-01-15T17:51:44;97212.19;;;-0.60;100.00
28312;BME280;15572;48.810;9.148;2024-01-15T17:56:42;97212.72;;;-0.56;100.00
28312;BME280;15572;48.810;9.148;2024-01-15T18:01:40;97228.09;;;-0.50;100.00
28312;BME280;15572;48.810;9.148;2024-01-15T18:06:38;97234.06;;;-0.48;100.00
28312;BME280;15572;48.810;9.148;2024-01-15T18:11:36;97255.28;;;-0.56;100.00
28312;BME280;15572;48.810;9.148;2024-01-15T18:16:32;97252.00;;;-0.50;100.00
28312;BME280;15572;48.810;9.148;2024-01-15T18:21:30;97256.38;;;-0.59;100.00
28312;BME280;15572;48.810;9.148;2024-01-15T18:26:26;97257.59;;;-0.71;100.00
28312;BME280;15572;48.810;9.148;2024-01-15T18:31:23;97250.91;;;-0.75;100.00
28312;BME280;15572;48.810;9.148;2024-01-15T18:36:20;97256.38;;;-0.76;100.00
28312;BME280;15572;48.810;9.148;2024-01-15T18:41:21;97254.69;;;-0.77;100.00
28312;BME280;15572;48.810;9.148;2024-01-15T18:46:19;97263.19;;;-0.74;100.00
28312;BME280;15572;48.810;9.148;2024-01-15T18:51:19;97276.88;;;-0.69;100.00
28312;BME280;15572;48.810;9.148;2024-01-15T18:56:16;97260.06;;;-0.60;97.38
28312;BME280;15572;48.810;9.148;2024-01-15T19:01:25;97257.53;;;-0.61;96.05
28312;BME280;15572;48.810;9.148;2024-01-15T19:06:22;97276.84;;;-0.59;95.49
28312;BME280;15572;48.810;9.148;2024-01-15T19:11:19;97267.59;;;-0.55;93.62
28312;BME280;15572;48.810;9.148;2024-01-15T19:16:18;97268.56;;;-0.56;92.35
28312;BME280;15572;48.810;9.148;2024-01-15T19:21:17;97282.69;;;-0.56;92.81
28312;BME280;15572;48.810;9.148;2024-01-15T19:26:17;97284.91;;;-0.51;91.56
28312;BME280;15572;48.810;9.148;2024-01-15T19:31:14;97294.50;;;-0.40;90.22
28312;BME280;15572;48.810;9.148;2024-01-15T19:36:20;97297.88;;;-0.48;91.08
28312;BME280;15572;48.810;9.148;2024-01-15T19:41:17;97291.50;;;-0.55;92.07
28312;BME280;15572;48.810;9.148;2024-01-15T19:46:13;97305.06;;;-0.49;90.00
28312;BME280;15572;48.810;9.148;2024-01-15T19:51:10;97307.53;;;-0.47;89.60
28312;BME280;15572;48.810;9.148;2024-01-15T19:56:08;97305.44;;;-0.44;88.55
28312;BME280;15572;48.810;9.148;2024-01-15T20:01:04;97316.22;;;-0.45;87.13
28312;BME280;15572;48.810;9.148;2024-01-15T20:06:01;97319.88;;;-0.46;87.31
28312;BME280;15572;48.810;9.148;2024-01-15T20:10:58;97317.66;;;-0.51;88.96
28312;BME280;15572;48.810;9.148;2024-01-15T20:15:56;97333.06;;;-0.54;88.04
28312;BME280;15572;48.810;9.148;2024-01-15T20:20:52;97332.78;;;-0.51;87.06
28312;BME280;15572;48.810;9.148;2024-01-15T20:25:49;97343.41;;;-0.51;86.27
28312;BME280;15572;48.810;9.148;2024-01-15T20:30:45;97359.50;;;-0.53;86.55
28312;BME280;15572;48.810;9.148;2024-01-15T20:35:43;97359.34;;;-0.51;87.14
28312;BME280;15572;48.810;9.148;2024-01-15T20:40:39;97378.28;;;-0.54;86.60
28312;BME280;15572;48.810;9.148;2024-01-15T20:45:36;97369.47;;;-0.55;86.19
28312;BME280;15572;48.810;9.148;2024-01-15T20:50:32;97372.97;;;-0.54;86.34
28312;BME280;15572;48.810;9.148;2024-01-15T20:55:30;97368.63;;;-0.55;86.07
28312;BME280;15572;48.810;9.148;2024-01-15T21:00:27;97372.25;;;-0.56;85.36
28312;BME280;15572;48.810;9.148;2024-01-15T21:05:23;97382.06;;;-0.57;84.98
28312;BME280;15572;48.810;9.148;2024-01-15T21:10:19;97383.72;;;-0.56;83.64
28312;BME280;15572;48.810;9.148;2024-01-15T21:15:17;97381.66;;;-0.62;84.93
28312;BME280;15572;48.810;9.148;2024-01-15T21:20:14;97397.91;;;-0.65;84.86
28312;BME280;15572;48.810;9.148;2024-01-15T21:25:11;97408.94;;;-0.60;83.58
28312;BME280;15572;48.810;9.148;2024-01-15T21:30:08;97400.41;;;-0.63;84.01
28312;BME280;15572;48.810;9.148;2024-01-15T21:35:09;97402.53;;;-0.67;83.85
28312;BME280;15572;48.810;9.148;2024-01-15T21:40:07;97410.38;;;-0.65;84.03
28312;BME280;15572;48.810;9.148;2024-01-15T21:45:06;97416.81;;;-0.68;84.40
28312;BME280;15572;48.810;9.148;2024-01-15T21:50:04;97418.22;;;-0.73;85.17
28312;BME280;15572;48.810;9.148;2024-01-15T21:55:02;97423.53;;;-0.73;85.19
28312;BME280;15572;48.810;9.148;2024-01-15T21:59:59;97430.94;;;-0.67;84.16
28312;BME280;15572;48.810;9.148;2024-01-15T22:04:56;97436.38;;;-0.69;84.76
28312;BME280;15572;48.810;9.148;2024-01-15T22:09:52;97432.47;;;-0.65;83.29
28312;BME280;15572;48.810;9.148;2024-01-15T22:14:50;97447.03;;;-0.69;83.17
28312;BME280;15572;48.810;9.148;2024-01-15T22:19:46;97453.34;;;-0.70;84.25
28312;BME280;15572;48.810;9.148;2024-01-15T22:24:43;97447.03;;;-0.69;83.57
28312;BME280;15572;48.810;9.148;2024-01-15T22:29:39;97460.19;;;-0.67;84.38
28312;BME280;15572;48.810;9.148;2024-01-15T22:34:37;97461.16;;;-0.68;83.87
28312;BME280;15572;48.810;9.148;2024-01-15T22:39:33;97462.28;;;-0.71;84.06
28312;BME280;15572;48.810;9.148;2024-01-15T22:44:29;97466.47;;;-0.68;83.91
28312;BME280;15572;48.810;9.148;2024-01-15T22:49:26;97471.38;;;-0.73;84.73
28312;BME280;15572;48.810;9.148;2024-01-15T22:54:23;97487.34;;;-0.73;83.83
28312;BME280;15572;48.810;9.148;2024-01-15T22:59:20;97484.56;;;-0.81;84.69
28312;BME280;15572;48.810;9.148;2024-01-15T23:04:17;97492.97;;;-0.86;85.23
28312;BME280;15572;48.810;9.148;2024-01-15T23:09:13;97498.41;;;-0.88;85.25
28312;BME280;15572;48.810;9.148;2024-01-15T23:14:11;97510.31;;;-0.92;85.84
28312;BME280;15572;48.810;9.148;2024-01-15T23:19:07;97519.56;;;-0.86;85.63
28312;BME280;15572;48.810;9.148;2024-01-15T23:24:05;97516.31;;;-0.90;86.05
28312;BME280;15572;48.810;9.148;2024-01-15T23:29:03;97514.50;;;-0.89;86.23
28312;BME280;15572;48.810;9.148;2024-01-15T23:34:01;97525.72;;;-0.86;86.32
28312;BME280;15572;48.810;9.148;2024-01-15T23:39:00;97529.75;;;-0.81;85.06
28312;BME280;15572;48.810;9.148;2024-01-15T23:43:57;97536.44;;;-0.77;85.15
28312;BME280;15572;48.810;9.148;2024-01-15T23:48:53;97536.31;;;-0.76;84.50
28312;BME280;15572;48.810;9.148;2024-01-15T23:53:52;97527.50;;;-0.76;84.62
28312;BME280;15572;48.810;9.148;2024-01-15T23:58:49;97531.56;;;-0.82;85.62
